Map

Track Data

SID SEASON NUMBER BASIN SUBBASIN NAME ISO_TIME NATURE LAT LON WMO_WIND WMO_PRES WMO_AGENCY TRACK_TYPE DIST2LAND LANDFALL IFLAG USA_AGENCY USA_ATCF_ID USA_LAT USA_LON USA_RECORD USA_STATUS USA_WIND USA_PRES USA_SSHS USA_R34_NE USA_R34_SE USA_R34_SW USA_R34_NW USA_R50_NE USA_R50_SE USA_R50_SW USA_R50_NW USA_R64_NE USA_R64_SE USA_R64_SW USA_R64_NW USA_POCI USA_ROCI USA_RMW USA_EYE TOKYO_LAT TOKYO_LON TOKYO_GRADE TOKYO_WIND TOKYO_PRES TOKYO_R50_DIR TOKYO_R50_LONG TOKYO_R50_SHORT TOKYO_R30_DIR TOKYO_R30_LONG TOKYO_R30_SHORT TOKYO_LAND CMA_LAT CMA_LON CMA_CAT CMA_WIND CMA_PRES HKO_LAT HKO_LON HKO_CAT HKO_WIND HKO_PRES NEWDELHI_LAT NEWDELHI_LON NEWDELHI_GRADE NEWDELHI_WIND NEWDELHI_PRES NEWDELHI_CI NEWDELHI_DP NEWDELHI_POCI REUNION_LAT REUNION_LON REUNION_TYPE REUNION_WIND REUNION_PRES REUNION_TNUM REUNION_CI REUNION_RMW REUNION_R34_NE REUNION_R34_SE REUNION_R34_SW REUNION_R34_NW REUNION_R50_NE REUNION_R50_SE REUNION_R50_SW REUNION_R50_NW REUNION_R64_NE REUNION_R64_SE REUNION_R64_SW REUNION_R64_NW BOM_LAT BOM_LON BOM_TYPE BOM_WIND BOM_PRES BOM_TNUM BOM_CI BOM_RMW BOM_R34_NE BOM_R34_SE BOM_R34_SW BOM_R34_NW BOM_R50_NE BOM_R50_SE BOM_R50_SW BOM_R50_NW BOM_R64_NE BOM_R64_SE BOM_R64_SW BOM_R64_NW BOM_ROCI BOM_POCI BOM_EYE BOM_POS_METHOD BOM_PRES_METHOD NADI_LAT NADI_LON NADI_CAT NADI_WIND NADI_PRES WELLINGTON_LAT WELLINGTON_LON WELLINGTON_WIND WELLINGTON_PRES DS824_LAT DS824_LON DS824_STAGE DS824_WIND DS824_PRES TD9636_LAT TD9636_LON TD9636_STAGE TD9636_WIND TD9636_PRES TD9635_LAT TD9635_LON TD9635_WIND TD9635_PRES TD9635_ROCI NEUMANN_LAT NEUMANN_LON NEUMANN_CLASS NEUMANN_WIND NEUMANN_PRES MLC_LAT MLC_LON MLC_CLASS MLC_WIND MLC_PRES USA_GUST BOM_GUST BOM_GUST_PER REUNION_GUST REUNION_GUST_PER USA_SEAHGT USA_SEARAD_NE USA_SEARAD_SE USA_SEARAD_SW USA_SEARAD_NW STORM_SPEED STORM_DIR
1992230N11325 1992 69 NA NA ANDREW 1992-08-16 18:00:00 TS 10.8000 -35.5000 25 1010 hurdat_atl main 1607 1596 O_____________ hurdat_atl AL041992 10.8000 -35.5000 TD 25 1010 -1 19 282
1992230N11325 1992 69 NA NA ANDREW 1992-08-16 21:00:00 TS 10.9930 -36.4248 main 1602 1594 P_____________ AL041992 10.9930 -36.4248 TD 27 1009 -1 19 282
1992230N11325 1992 69 NA NA ANDREW 1992-08-17 00:00:00 TS 11.2000 -37.4000 30 1009 hurdat_atl main 1602 1598 O_____________ hurdat_atl AL041992 11.2000 -37.4000 TD 30 1009 -1 21 282
1992230N11325 1992 69 NA NA ANDREW 1992-08-17 03:00:00 TS 11.4347 -38.4628 main 1608 1541 P_____________ AL041992 11.4347 -38.4628 TD 30 1008 -1 22 283
1992230N11325 1992 69 NA NA ANDREW 1992-08-17 06:00:00 TS 11.7000 -39.6000 30 1008 hurdat_atl main 1532 1444 O_____________ hurdat_atl AL041992 11.7000 -39.6000 TD 30 1008 -1 24 283
1992230N11325 1992 69 NA NA ANDREW 1992-08-17 09:00:00 TS 11.9774 -40.8003 main 1442 1368 P_____________ AL041992 11.9774 -40.8003 TD 32 1007 -1 24 284
1992230N11325 1992 69 NA NA ANDREW 1992-08-17 12:00:00 TS 12.3000 -42.0000 35 1006 hurdat_atl main 1360 1303 O_____________ hurdat_atl AL041992 12.3000 -42.0000 TS 35 1006 0 24 288
1992230N11325 1992 69 NA NA ANDREW 1992-08-17 15:00:00 TS 12.7070 -43.1298 main 1303 1262 P_____________ AL041992 12.7070 -43.1298 TS 35 1004 0 23 290
1992230N11325 1992 69 NA NA ANDREW 1992-08-17 18:00:00 TS 13.1000 -44.2000 35 1003 hurdat_atl main 1257 1216 O_____________ hurdat_atl AL041992 13.1000 -44.2000 TS 35 1003 0 22 288
1992230N11325 1992 69 NA NA ANDREW 1992-08-17 21:00:00 TS 13.3721 -45.2304 main 1219 1178 P_____________ AL041992 13.3721 -45.2304 TS 37 1002 0 20 284
1992230N11325 1992 69 NA NA ANDREW 1992-08-18 00:00:00 TS 13.6000 -46.2000 40 1002 hurdat_atl main 1173 1136 O_____________ hurdat_atl AL041992 13.6000 -46.2000 TS 40 1002 0 19 285
1992230N11325 1992 69 NA NA ANDREW 1992-08-18 03:00:00 TS 13.8494 -47.1078 main 1136 1117 P_____________ AL041992 13.8494 -47.1078 TS 42 1001 0 18 286
1992230N11325 1992 69 NA NA ANDREW 1992-08-18 06:00:00 TS 14.1000 -48.0000 45 1001 hurdat_atl main 1117 1094 O_____________ hurdat_atl AL041992 14.1000 -48.0000 TS 45 1001 0 18 285
1992230N11325 1992 69 NA NA ANDREW 1992-08-18 09:00:00 TS 14.3272 -48.9430 main 1094 1081 P_____________ AL041992 14.3272 -48.9430 TS 45 1000 0 19 285
1992230N11325 1992 69 NA NA ANDREW 1992-08-18 12:00:00 TS 14.6000 -49.9000 45 1000 hurdat_atl main 1082 1073 O_____________ hurdat_atl AL041992 14.6000 -49.9000 TS 45 1000 0 20 289
1992230N11325 1992 69 NA NA ANDREW 1992-08-18 15:00:00 TS 14.9698 -50.8651 main 1081 1077 P_____________ AL041992 14.9698 -50.8651 TS 45 1000 0 20 294
1992230N11325 1992 69 NA NA ANDREW 1992-08-18 18:00:00 TS 15.4000 -51.8000 45 1000 hurdat_atl main 1095 1073 O_____________ hurdat_atl AL041992 15.4000 -51.8000 TS 45 1000 0 19 297
1992230N11325 1992 69 NA NA ANDREW 1992-08-18 21:00:00 TS 15.8419 -52.6579 main 1064 1025 P_____________ AL041992 15.8419 -52.6579 TS 45 1000 0 19 299
1992230N11325 1992 69 NA NA ANDREW 1992-08-19 00:00:00 TS 16.3000 -53.5000 45 1001 hurdat_atl main 1025 979 O_____________ hurdat_atl AL041992 16.3000 -53.5000 TS 45 1001 0 19 299
1992230N11325 1992 69 NA NA ANDREW 1992-08-19 03:00:00 TS 16.7574 -54.4076 main 987 951 P_____________ AL041992 16.7574 -54.4076 TS 45 1001 0 19 298
1992230N11325 1992 69 NA NA ANDREW 1992-08-19 06:00:00 TS 17.2000 -55.3000 45 1002 hurdat_atl main 952 932 O_____________ hurdat_atl AL041992 17.2000 -55.3000 TS 45 1002 0 19 297
1992230N11325 1992 69 NA NA ANDREW 1992-08-19 09:00:00 TS 17.6072 -56.1304 main 935 919 P_____________ AL041992 17.6072 -56.1304 TS 45 1003 0 17 298
1992230N11325 1992 69 NA NA ANDREW 1992-08-19 12:00:00 TS 18.0000 -56.9000 45 1005 hurdat_atl main 919 844 O_____________ hurdat_atl AL041992 18.0000 -56.9000 TS 45 1005 0 16 298
1992230N11325 1992 69 NA NA ANDREW 1992-08-19 15:00:00 TS 18.3849 -57.6453 main 844 770 P_____________ AL041992 18.3849 -57.6453 TS 45 1006 0 16 301
1992230N11325 1992 69 NA NA ANDREW 1992-08-19 18:00:00 TS 18.8000 -58.3000 45 1007 hurdat_atl main 770 721 O_____________ hurdat_atl AL041992 18.8000 -58.3000 TS 45 1007 0 15 308
1992230N11325 1992 69 NA NA ANDREW 1992-08-19 21:00:00 TS 19.2922 -58.8526 main 712 677 P_____________ AL041992 19.2922 -58.8526 TS 42 1009 0 14 317
1992230N11325 1992 69 NA NA ANDREW 1992-08-20 00:00:00 TS 19.8000 -59.3000 40 1011 hurdat_atl main 680 651 O_____________ hurdat_atl AL041992 19.8000 -59.3000 TS 40 1011 0 12 321
1992230N11325 1992 69 NA NA ANDREW 1992-08-20 03:00:00 TS 20.2498 -59.6730 main 651 636 P_____________ AL041992 20.2498 -59.6730 TS 40 1012 0 11 324
1992230N11325 1992 69 NA NA ANDREW 1992-08-20 06:00:00 TS 20.7000 -60.0000 40 1013 hurdat_atl main 640 630 O_____________ hurdat_atl AL041992 20.7000 -60.0000 TS 40 1013 0 11 327
1992230N11325 1992 69 NA NA ANDREW 1992-08-20 09:00:00 TS 21.2074 -60.3426 main 636 624 P_____________ AL041992 21.2074 -60.3426 TS 40 1014 0 12 327
1992230N11325 1992 69 NA NA ANDREW 1992-08-20 12:00:00 TS 21.7000 -60.7000 40 1015 hurdat_atl main 630 625 O_____________ hurdat_atl AL041992 21.7000 -60.7000 TS 40 1015 0 12 323
1992230N11325 1992 69 NA NA ANDREW 1992-08-20 15:00:00 TS 22.1224 -61.0853 main 625 625 P_____________ AL041992 22.1224 -61.0853 TS 40 1014 0 11 317
1992230N11325 1992 69 NA NA ANDREW 1992-08-20 18:00:00 TS 22.5000 -61.5000 40 1014 hurdat_atl main 626 620 O_____________ hurdat_atl AL041992 22.5000 -61.5000 TS 40 1014 0 11 313
1992230N11325 1992 69 NA NA ANDREW 1992-08-20 21:00:00 TS 22.8574 -61.9427 main 633 624 P_____________ AL041992 22.8574 -61.9427 TS 42 1014 0 11 310
1992230N11325 1992 69 NA NA ANDREW 1992-08-21 00:00:00 TS 23.2000 -62.4000 45 1014 hurdat_atl main 631 625 O_____________ hurdat_atl AL041992 23.2000 -62.4000 TS 45 1014 0 11 310
1992230N11325 1992 69 NA NA ANDREW 1992-08-21 03:00:00 TS 23.5649 -62.8501 main 645 645 P_____________ AL041992 23.5649 -62.8501 TS 45 1012 0 11 310
1992230N11325 1992 69 NA NA ANDREW 1992-08-21 06:00:00 TS 23.9000 -63.3000 45 1010 hurdat_atl main 659 655 O_____________ hurdat_atl AL041992 23.9000 -63.3000 TS 45 1010 0 10 306
1992230N11325 1992 69 NA NA ANDREW 1992-08-21 09:00:00 TS 24.1725 -63.7652 main 674 671 P_____________ AL041992 24.1725 -63.7652 TS 47 1008 0 10 301
1992230N11325 1992 69 NA NA ANDREW 1992-08-21 12:00:00 TS 24.4000 -64.2000 50 1007 hurdat_atl main 686 684 O_____________ hurdat_atl AL041992 24.4000 -64.2000 TS 50 1007 0 8 301
1992230N11325 1992 69 NA NA ANDREW 1992-08-21 15:00:00 TS 24.5996 -64.5429 main 702 700 P_____________ AL041992 24.5996 -64.5429 TS 50 1005 0 8 302
1992230N11325 1992 69 NA NA ANDREW 1992-08-21 18:00:00 TS 24.8000 -64.9000 50 1004 hurdat_atl main 719 718 O_____________ hurdat_atl AL041992 24.8000 -64.9000 TS 50 1004 0 9 301
1992230N11325 1992 69 NA NA ANDREW 1992-08-21 21:00:00 TS 25.0575 -65.3699 main 749 749 P_____________ AL041992 25.0575 -65.3699 TS 52 1002 0 10 299
1992230N11325 1992 69 NA NA ANDREW 1992-08-22 00:00:00 TS 25.3000 -65.9000 55 1000 hurdat_atl main 756 748 O_____________ hurdat_atl AL041992 25.3000 -65.9000 TS 55 1000 0 10 293
1992230N11325 1992 69 NA NA ANDREW 1992-08-22 03:00:00 TS 25.4722 -66.4277 main 754 737 P_____________ AL041992 25.4722 -66.4277 TS 60 997 0 10 287
1992230N11325 1992 69 NA NA ANDREW 1992-08-22 06:00:00 TS 25.6000 -67.0000 65 994 hurdat_atl main 737 724 O_____________ hurdat_atl AL041992 25.6000 -67.0000 HU 65 994 1 11 283
1992230N11325 1992 69 NA NA ANDREW 1992-08-22 09:00:00 TS 25.7298 -67.6273 main 724 702 P_____________ AL041992 25.7298 -67.6273 HU 72 987 1 12 280
1992230N11325 1992 69 NA NA ANDREW 1992-08-22 12:00:00 TS 25.8000 -68.3000 80 981 hurdat_atl main 702 656 O_____________ hurdat_atl AL041992 25.8000 -68.3000 HU 80 981 1 12 272
1992230N11325 1992 69 NA NA ANDREW 1992-08-22 15:00:00 TS 25.7723 -68.9928 main 656 605 P_____________ AL041992 25.7723 -68.9928 HU 87 975 2 13 265
1992230N11325 1992 69 NA NA ANDREW 1992-08-22 18:00:00 TS 25.7000 -69.7000 95 969 hurdat_atl main 605 568 O_____________ hurdat_atl AL041992 25.7000 -69.7000 HU 95 969 2 13 264
1992230N11325 1992 69 NA NA ANDREW 1992-08-22 21:00:00 TS 25.6497 -70.3999 main 558 528 P_____________ AL041992 25.6497 -70.3999 HU 102 965 3 13 265
1992230N11325 1992 69 NA NA ANDREW 1992-08-23 00:00:00 TS 25.6000 -71.1000 110 961 hurdat_atl main 528 509 O_____________ hurdat_atl AL041992 25.6000 -71.1000 HU 110 961 3 12 265
1992230N11325 1992 69 NA NA ANDREW 1992-08-23 03:00:00 TS 25.5493 -71.7774 main 495 483 P_____________ AL041992 25.5493 -71.7774 HU 120 954 4 13 265
1992230N11325 1992 69 NA NA ANDREW 1992-08-23 06:00:00 TS 25.5000 -72.5000 130 947 hurdat_atl main 483 454 O_____________ hurdat_atl AL041992 25.5000 -72.5000 HU 130 947 4 14 266
1992230N11325 1992 69 NA NA ANDREW 1992-08-23 09:00:00 TS 25.4425 -73.3351 main 454 366 P_____________ AL041992 25.4425 -73.3351 HU 137 940 5 15 266
1992230N11325 1992 69 NA NA ANDREW 1992-08-23 12:00:00 TS 25.4000 -74.2000 145 933 hurdat_atl main 366 290 O_____________ hurdat_atl AL041992 25.4000 -74.2000 HU 145 933 5 15 268
1992230N11325 1992 69 NA NA ANDREW 1992-08-23 15:00:00 TS 25.3927 -75.0067 main 290 215 P_____________ AL041992 25.3927 -75.0067 HU 147 927 5 14 270
1992230N11325 1992 69 NA NA ANDREW 1992-08-23 18:00:00 TS 25.4000 -75.8000 150 922 hurdat_atl main 215 142 O_____________ hurdat_atl AL041992 25.4000 -75.8000 HU 150 922 5 14 270
1992230N11325 1992 69 NA NA ANDREW 1992-08-23 21:00:00 TS 25.4000 -76.6000 140 923 hurdat_atl main 142 68 O_____________ hurdat_atl AL041992 25.4000 -76.6000 L HU 140 923 5 15 270
1992230N11325 1992 69 NA NA ANDREW 1992-08-24 00:00:00 TS 25.4000 -77.5000 125 930 hurdat_atl main 60 39 O_____________ hurdat_atl AL041992 25.4000 -77.5000 HU 125 930 4 16 270
1992230N11325 1992 69 NA NA ANDREW 1992-08-24 01:00:00 TS 25.4000 -77.8000 130 931 hurdat_atl main 39 33 O_____________ hurdat_atl AL041992 25.4000 -77.8000 L HU 130 931 4 16 269
1992230N11325 1992 69 NA NA ANDREW 1992-08-24 03:00:00 TS 25.3872 -78.3877 main 45 45 P_____________ AL041992 25.3872 -78.3877 HU 130 933 4 16 270
1992230N11325 1992 69 NA NA ANDREW 1992-08-24 06:00:00 TS 25.4000 -79.3000 130 937 hurdat_atl main 91 10 O_____________ hurdat_atl AL041992 25.4000 -79.3000 HU 130 937 4 17 274
1992230N11325 1992 69 NA NA ANDREW 1992-08-24 08:40:00 TS 25.5000 -80.2000 145 926 hurdat_atl main 10 10 O_____________ hurdat_atl AL041992 25.5000 -80.2000 L HU 145 926 5 18 276
1992230N11325 1992 69 NA NA ANDREW 1992-08-24 09:00:00 TS 25.4999 -80.2800 main 0 0 P_____________ AL041992 25.4999 -80.2800 HU 145 922 5 13 270
1992230N11325 1992 69 NA NA ANDREW 1992-08-24 09:05:00 TS 25.5000 -80.3000 145 922 hurdat_atl main 0 0 O_____________ hurdat_atl AL041992 25.5000 -80.3000 L HU 145 922 5 17 277
1992230N11325 1992 69 NA NA ANDREW 1992-08-24 12:00:00 TS 25.6000 -81.2000 115 951 hurdat_atl main 0 0 O_____________ hurdat_atl AL041992 25.6000 -81.2000 HU 115 951 4 17 276
1992230N11325 1992 69 NA GM ANDREW 1992-08-24 15:00:00 TS 25.6866 -82.1455 main 45 45 P_____________ AL041992 25.6866 -82.1455 HU 115 949 4 17 277
1992230N11325 1992 69 NA GM ANDREW 1992-08-24 18:00:00 TS 25.8000 -83.1000 115 947 hurdat_atl main 133 133 O_____________ hurdat_atl AL041992 25.8000 -83.1000 HU 115 947 4 18 280
1992230N11325 1992 69 NA GM ANDREW 1992-08-24 21:00:00 TS 25.9847 -84.0649 main 200 200 P_____________ AL041992 25.9847 -84.0649 HU 115 945 4 18 283
1992230N11325 1992 69 NA GM ANDREW 1992-08-25 00:00:00 TS 26.2000 -85.0000 115 943 hurdat_atl main 267 267 O_____________ hurdat_atl AL041992 26.2000 -85.0000 HU 115 943 4 17 284
1992230N11325 1992 69 NA GM ANDREW 1992-08-25 03:00:00 TS 26.3845 -85.8806 main 340 340 P_____________ AL041992 26.3845 -85.8806 HU 115 945 4 16 285
1992230N11325 1992 69 NA GM ANDREW 1992-08-25 06:00:00 TS 26.6000 -86.7000 115 948 hurdat_atl main 356 287 O_____________ hurdat_atl AL041992 26.6000 -86.7000 HU 115 948 4 15 289
1992230N11325 1992 69 NA GM ANDREW 1992-08-25 09:00:00 TS 26.8845 -87.4726 main 282 219 P_____________ AL041992 26.8845 -87.4726 HU 117 947 4 15 294
1992230N11325 1992 69 NA GM ANDREW 1992-08-25 12:00:00 TS 27.2000 -88.2000 120 946 hurdat_atl main 219 168 O_____________ hurdat_atl AL041992 27.2000 -88.2000 HU 120 946 4 14 295
1992230N11325 1992 69 NA GM ANDREW 1992-08-25 15:00:00 TS 27.4925 -88.9452 main 168 139 P_____________ AL041992 27.4925 -88.9452 HU 122 943 4 14 296
1992230N11325 1992 69 NA GM ANDREW 1992-08-25 18:00:00 TS 27.8000 -89.6000 125 941 hurdat_atl main 142 111 O_____________ hurdat_atl AL041992 27.8000 -89.6000 HU 125 941 4 12 303
1992230N11325 1992 69 NA GM ANDREW 1992-08-25 21:00:00 TS 28.1420 -90.0954 main 111 67 P_____________ AL041992 28.1420 -90.0954 HU 125 939 4 11 311
1992230N11325 1992 69 NA GM ANDREW 1992-08-26 00:00:00 TS 28.5000 -90.5000 125 937 hurdat_atl main 67 33 O_____________ hurdat_atl AL041992 28.5000 -90.5000 HU 125 937 4 10 312
1992230N11325 1992 69 NA GM ANDREW 1992-08-26 03:00:00 TS 28.8217 -90.9417 main 33 14 P_____________ AL041992 28.8217 -90.9417 HU 122 946 4 10 315
1992230N11325 1992 69 NA GM ANDREW 1992-08-26 06:00:00 TS 29.2000 -91.3000 120 955 hurdat_atl main 19 0 O_____________ hurdat_atl AL041992 29.2000 -91.3000 HU 120 955 4 10 328
1992230N11325 1992 69 NA NA ANDREW 1992-08-26 08:30:00 TS 29.6000 -91.5000 100 956 hurdat_atl main 0 0 O_____________ hurdat_atl AL041992 29.6000 -91.5000 L HU 100 956 3 10 336
1992230N11325 1992 69 NA NA ANDREW 1992-08-26 09:00:00 TS 29.6756 -91.5373 main 0 0 P_____________ AL041992 29.6756 -91.5373 HU 97 958 3 9 341
1992230N11325 1992 69 NA NA ANDREW 1992-08-26 12:00:00 TS 30.1000 -91.7000 80 973 hurdat_atl main 0 0 O_____________ hurdat_atl AL041992 30.1000 -91.7000 HU 80 973 1 9 349
1992230N11325 1992 69 NA NA ANDREW 1992-08-26 15:00:00 TS 30.5193 -91.7207 main 0 0 P_____________ AL041992 30.5193 -91.7207 HU 65 982 1 8 6
1992230N11325 1992 69 NA NA ANDREW 1992-08-26 18:00:00 TS 30.9000 -91.6000 50 991 hurdat_atl main 0 0 O_____________ hurdat_atl AL041992 30.9000 -91.6000 TS 50 991 0 8 22
1992230N11325 1992 69 NA NA ANDREW 1992-08-26 21:00:00 TS 31.2150 -91.3875 main 0 0 P_____________ AL041992 31.2150 -91.3875 TS 42 993 0 7 36
1992230N11325 1992 69 NA NA ANDREW 1992-08-27 00:00:00 TS 31.5000 -91.1000 35 995 hurdat_atl main 0 0 O_____________ hurdat_atl AL041992 31.5000 -91.1000 TS 35 995 0 7 40
1992230N11325 1992 69 NA NA ANDREW 1992-08-27 03:00:00 TS 31.7923 -90.8296 main 0 0 P_____________ AL041992 31.7923 -90.8296 TS 32 996 -1 8 40
1992230N11325 1992 69 NA NA ANDREW 1992-08-27 06:00:00 TS 32.1000 -90.5000 30 997 hurdat_atl main 0 0 O_____________ hurdat_atl AL041992 32.1000 -90.5000 TD 30 997 -1 9 44
1992230N11325 1992 69 NA NA ANDREW 1992-08-27 09:00:00 TS 32.4348 -90.0946 main 0 0 P_____________ AL041992 32.4348 -90.0946 TD 30 997 -1 10 47
1992230N11325 1992 69 NA NA ANDREW 1992-08-27 12:00:00 TS 32.8000 -89.6000 30 998 hurdat_atl main 0 0 O_____________ hurdat_atl AL041992 32.8000 -89.6000 TD 30 998 -1 12 49
1992230N11325 1992 69 NA NA ANDREW 1992-08-27 15:00:00 TS 33.1919 -89.0593 main 0 0 P_____________ AL041992 33.1919 -89.0593 TD 27 998 -1 13 51
1992230N11325 1992 69 NA NA ANDREW 1992-08-27 18:00:00 TS 33.6000 -88.4000 25 999 hurdat_atl main 0 0 O_____________ hurdat_atl AL041992 33.6000 -88.4000 TD 25 999 -1 14 56
1992230N11325 1992 69 NA NA ANDREW 1992-08-27 21:00:00 TS 33.9833 -87.6603 main 0 0 P_____________ AL041992 33.9833 -87.6603 TD 22 999 -1 16 60
1992230N11325 1992 69 NA NA ANDREW 1992-08-28 00:00:00 TS 34.4000 -86.7000 20 1000 hurdat_atl main 0 0 O_____________ hurdat_atl AL041992 34.4000 -86.7000 TD 20 1000 -1 20 64
1992230N11325 1992 69 NA NA ANDREW 1992-08-28 03:00:00 TS 34.8845 -85.4423 main 0 0 P_____________ AL041992 34.8845 -85.4423 TD 20 1000 -1 24 66
1992230N11325 1992 69 NA NA ANDREW 1992-08-28 06:00:00 TS 35.4000 -84.0000 20 1000 hurdat_atl main 0 O_____________ hurdat_atl AL041992 35.4000 -84.0000 TD 20 1000 -1 26 66

About IBTrACS Database

This database is a web-friendly format of International Best Track Archive for Climate Stewardship (IBTrACS), a global best track data archive curated by NOAA dating back to 1842.

Updated: 2021-10-21